createdAt,value
2023-03-31T00:01:52.995Z,88.90
2023-03-31T00:04:24.330Z,89.30
2023-03-31T00:06:53.969Z,89.80
2023-03-31T00:09:22.172Z,89.80
2023-03-31T00:11:50.367Z,90.30
2023-03-31T00:14:18.828Z,90.00
2023-03-31T00:16:45.954Z,89.80
2023-03-31T00:19:19.950Z,89.80
2023-03-31T00:21:48.382Z,90.00
2023-03-31T00:24:16.339Z,90.30
2023-03-31T00:26:43.841Z,90.10
2023-03-31T00:29:12.733Z,89.90
2023-03-31T00:31:39.537Z,89.70
2023-03-31T00:34:07.158Z,89.60
2023-03-31T00:36:36.437Z,89.70
2023-03-31T00:39:09.184Z,89.90
2023-03-31T00:41:39.058Z,90.00
2023-03-31T00:44:18.767Z,89.80
2023-03-31T00:46:54.841Z,89.60
2023-03-31T00:49:21.432Z,89.40
2023-03-31T00:51:51.455Z,89.60
2023-03-31T00:54:19.484Z,89.60
2023-03-31T00:56:48.856Z,89.70
2023-03-31T00:59:15.779Z,89.70
2023-03-31T01:01:46.543Z,89.80
2023-03-31T01:04:22.403Z,89.60
2023-03-31T01:07:02.340Z,89.70
2023-03-31T01:09:35.225Z,89.60
2023-03-31T01:12:04.439Z,89.60
2023-03-31T01:14:32.568Z,89.30
2023-03-31T01:17:00.566Z,89.00
2023-03-31T01:19:39.422Z,89.00
2023-03-31T01:22:26.240Z,89.00
2023-03-31T01:25:08.502Z,88.80
2023-03-31T01:27:50.954Z,88.90
2023-03-31T01:30:32.787Z,88.70
2023-03-31T01:33:02.665Z,89.10
2023-03-31T01:36:06.615Z,89.90
2023-03-31T01:38:39.095Z,90.60
2023-03-31T01:41:35.680Z,91.30
2023-03-31T01:44:17.498Z,91.60
2023-03-31T01:46:57.747Z,92.00
2023-03-31T01:49:37.270Z,92.20
2023-03-31T01:52:10.505Z,92.10
2023-03-31T01:55:03.883Z,92.60
2023-03-31T01:57:41.513Z,92.90
2023-03-31T02:00:11.487Z,93.00
2023-03-31T02:03:02.655Z,93.40
2023-03-31T02:05:38.196Z,93.60
2023-03-31T02:08:14.568Z,93.50
2023-03-31T02:10:43.913Z,93.40
2023-03-31T02:13:12.806Z,93.30
2023-03-31T02:15:43.966Z,93.40
2023-03-31T02:18:17.144Z,93.40
2023-03-31T02:20:47.539Z,93.20
2023-03-31T02:23:16.729Z,93.20
2023-03-31T02:25:50.759Z,93.00
2023-03-31T02:28:22.325Z,93.00
2023-03-31T02:31:12.116Z,92.90
2023-03-31T02:33:38.827Z,93.10
2023-03-31T02:36:06.267Z,93.00
2023-03-31T02:38:38.212Z,92.90
2023-03-31T02:41:05.850Z,92.80
2023-03-31T02:43:32.718Z,92.60
2023-03-31T02:45:59.452Z,92.40
2023-03-31T02:48:33.941Z,92.20
2023-03-31T02:51:38.869Z,92.00
2023-03-31T02:54:50.692Z,92.00
2023-03-31T02:57:32.998Z,91.90
2023-03-31T03:00:26.370Z,91.80
2023-03-31T03:03:28.695Z,91.70
2023-03-31T03:06:07.506Z,91.80
2023-03-31T03:08:55.635Z,92.10
2023-03-31T03:11:49.548Z,92.40
2023-03-31T03:14:42.510Z,93.20
2023-03-31T03:17:14.813Z,94.00
2023-03-31T03:19:42.467Z,94.40
2023-03-31T03:22:09.766Z,95.00
2023-03-31T03:24:36.436Z,95.40
2023-03-31T03:27:03.049Z,96.10
2023-03-31T03:29:29.709Z,96.10
2023-03-31T03:31:56.467Z,96.20
2023-03-31T03:34:23.101Z,96.50
2023-03-31T03:36:49.710Z,97.00
2023-03-31T03:39:16.563Z,97.10
2023-03-31T03:41:43.211Z,97.50
2023-03-31T03:44:09.824Z,97.70
2023-03-31T03:46:36.535Z,97.90
2023-03-31T03:49:03.536Z,98.00
2023-03-31T03:51:30.248Z,98.30
2023-03-31T03:53:56.868Z,99.00
2023-03-31T03:56:23.519Z,99.30
2023-03-31T03:58:50.795Z,99.70
2023-03-31T04:01:18.055Z,99.90
2023-03-31T04:03:45.390Z,99.90
2023-03-31T04:06:12.092Z,99.90
2023-03-31T04:08:38.802Z,99.90
2023-03-31T04:11:19.546Z,99.90
2023-03-31T04:13:47.053Z,99.90
2023-03-31T04:16:13.818Z,99.90
2023-03-31T04:18:42.652Z,99.90
2023-03-31T04:21:12.349Z,99.90
2023-03-31T04:23:47.031Z,99.90
2023-03-31T04:26:15.491Z,99.90
2023-03-31T04:28:42.870Z,99.90
2023-03-31T04:31:10.605Z,99.90
2023-03-31T04:33:40.112Z,99.90
2023-03-31T04:36:19.858Z,99.90
2023-03-31T04:38:50.584Z,99.90
2023-03-31T04:41:17.839Z,99.90
2023-03-31T04:43:44.718Z,99.90
2023-03-31T04:46:11.487Z,99.90
2023-03-31T04:48:38.120Z,99.90
2023-03-31T04:51:05.406Z,99.90
2023-03-31T04:53:33.033Z,99.90
2023-03-31T04:55:59.710Z,99.90
2023-03-31T04:58:26.410Z,99.90
2023-03-31T05:00:53.528Z,99.90
2023-03-31T05:03:21.470Z,99.90
2023-03-31T05:05:48.334Z,99.90
2023-03-31T05:08:15.327Z,99.90
2023-03-31T05:10:42.000Z,99.90
2023-03-31T05:13:11.779Z,99.90
2023-03-31T05:15:39.782Z,99.90
2023-03-31T05:18:07.628Z,99.90
2023-03-31T05:20:34.530Z,99.90
2023-03-31T05:23:01.887Z,99.90
2023-03-31T05:25:32.693Z,99.90
2023-03-31T05:28:00.168Z,99.90
2023-03-31T05:30:27.782Z,99.90
2023-03-31T05:32:54.892Z,99.90
2023-03-31T05:35:21.732Z,99.90
2023-03-31T05:37:48.390Z,99.90
2023-03-31T05:40:15.292Z,99.80
2023-03-31T05:42:42.003Z,99.70
2023-03-31T05:45:09.504Z,99.80
2023-03-31T05:47:36.896Z,99.60
2023-03-31T05:50:07.823Z,99.50
2023-03-31T05:52:34.988Z,99.70
2023-03-31T05:55:01.699Z,99.50
2023-03-31T05:57:28.492Z,99.60
2023-03-31T05:59:55.160Z,99.80
2023-03-31T06:02:21.963Z,99.60
2023-03-31T06:04:48.644Z,99.70
2023-03-31T06:07:17.825Z,99.90
2023-03-31T06:09:45.721Z,99.80
2023-03-31T06:12:12.351Z,99.80
2023-03-31T06:14:39.018Z,99.90
2023-03-31T06:17:05.758Z,99.80
2023-03-31T06:19:32.492Z,99.90
2023-03-31T06:21:59.186Z,99.90
2023-03-31T06:24:27.821Z,99.80
2023-03-31T06:26:54.405Z,99.70
2023-03-31T06:29:21.107Z,99.80
2023-03-31T06:31:47.735Z,99.90
2023-03-31T06:34:14.430Z,99.90
2023-03-31T06:36:41.863Z,99.90
2023-03-31T06:39:08.523Z,99.90
2023-03-31T06:41:35.224Z,99.90
2023-03-31T06:44:01.844Z,99.90
2023-03-31T06:46:28.623Z,99.90
2023-03-31T06:48:55.377Z,99.90
2023-03-31T06:51:22.264Z,99.90
2023-03-31T06:53:48.954Z,99.90
2023-03-31T06:56:16.121Z,99.80
2023-03-31T06:58:42.776Z,99.80
2023-03-31T07:01:12.743Z,99.50
2023-03-31T07:03:39.533Z,99.40
2023-03-31T07:06:06.481Z,99.40
2023-03-31T07:08:33.157Z,99.40
2023-03-31T07:11:01.058Z,99.90
2023-03-31T07:13:28.813Z,99.90
2023-03-31T07:15:56.122Z,99.90
2023-03-31T07:18:25.968Z,99.90
2023-03-31T07:20:52.819Z,99.90
2023-03-31T07:23:19.984Z,99.90
2023-03-31T07:25:47.612Z,99.90
2023-03-31T07:28:14.584Z,99.90
2023-03-31T07:30:41.449Z,99.90
2023-03-31T07:33:08.695Z,99.90
2023-03-31T07:35:39.415Z,99.90
2023-03-31T07:38:07.674Z,99.90
2023-03-31T07:40:34.306Z,99.90
2023-03-31T07:43:01.059Z,99.90
2023-03-31T07:45:27.986Z,99.90
2023-03-31T07:47:54.983Z,99.90
2023-03-31T07:50:22.342Z,99.90
2023-03-31T07:52:49.145Z,99.90
2023-03-31T07:55:16.706Z,99.90
2023-03-31T07:57:46.215Z,99.90
2023-03-31T08:00:14.244Z,99.90
2023-03-31T08:02:43.000Z,99.90
2023-03-31T08:05:15.088Z,99.90
2023-03-31T08:07:44.029Z,99.90
2023-03-31T08:10:14.255Z,99.90
2023-03-31T08:12:41.194Z,99.90
2023-03-31T08:15:09.084Z,99.90
2023-03-31T08:17:36.146Z,99.90
2023-03-31T08:20:07.982Z,99.90
2023-03-31T08:22:35.275Z,99.90
2023-03-31T08:25:02.174Z,99.90
2023-03-31T08:27:29.098Z,99.90
2023-03-31T08:29:55.851Z,99.90
2023-03-31T08:32:24.218Z,99.90
2023-03-31T08:34:51.762Z,99.90
2023-03-31T08:37:18.738Z,99.90
2023-03-31T08:39:46.060Z,99.90
2023-03-31T08:42:23.236Z,99.90
2023-03-31T08:45:11.420Z,99.90
2023-03-31T08:47:40.083Z,99.90
2023-03-31T08:50:20.134Z,99.90
2023-03-31T08:52:57.169Z,99.90
2023-03-31T08:55:29.502Z,99.90
2023-03-31T08:58:03.635Z,99.90
2023-03-31T09:00:41.190Z,99.90
2023-03-31T09:03:39.400Z,99.90
2023-03-31T09:06:16.997Z,99.90
2023-03-31T09:08:45.043Z,99.90
2023-03-31T09:11:40.226Z,99.90
2023-03-31T09:14:25.911Z,99.90
2023-03-31T09:17:21.450Z,99.90
2023-03-31T09:19:54.623Z,99.90
2023-03-31T09:22:33.186Z,99.90
2023-03-31T09:25:10.517Z,99.90
2023-03-31T09:27:41.381Z,99.90
2023-03-31T09:30:20.588Z,99.90
2023-03-31T09:32:52.437Z,99.90
2023-03-31T09:35:29.997Z,99.90
2023-03-31T09:37:57.231Z,99.90
2023-03-31T09:40:26.766Z,99.90
2023-03-31T09:43:00.506Z,99.90
2023-03-31T09:45:28.045Z,99.90
2023-03-31T09:47:57.831Z,99.90
2023-03-31T09:50:25.144Z,99.90
2023-03-31T09:52:58.828Z,99.90
2023-03-31T09:55:39.660Z,99.90
2023-03-31T09:58:11.992Z,99.90
2023-03-31T10:00:42.331Z,99.90
2023-03-31T10:03:14.051Z,99.90
2023-03-31T10:05:52.365Z,99.60
2023-03-31T10:08:38.338Z,98.60
2023-03-31T10:11:05.332Z,99.10
2023-03-31T10:13:59.487Z,99.30
2023-03-31T10:16:43.889Z,96.50
2023-03-31T10:19:19.849Z,98.60
2023-03-31T10:21:48.619Z,94.20
2023-03-31T10:24:19.730Z,93.60
2023-03-31T10:26:56.422Z,93.50
2023-03-31T10:29:32.800Z,90.60
2023-03-31T10:32:14.698Z,91.80
2023-03-31T10:34:43.144Z,88.60
2023-03-31T10:37:18.507Z,89.40
2023-03-31T10:39:47.676Z,90.00
2023-03-31T10:42:23.146Z,87.90
2023-03-31T10:44:50.159Z,87.30
2023-03-31T10:47:22.166Z,86.10
2023-03-31T10:49:56.488Z,87.30
2023-03-31T10:52:27.354Z,81.60
2023-03-31T10:55:00.290Z,84.10
2023-03-31T10:57:49.825Z,81.50
2023-03-31T11:00:59.200Z,82.80
2023-03-31T11:03:50.851Z,84.40
2023-03-31T11:06:30.890Z,76.80
2023-03-31T11:09:27.534Z,74.60
2023-03-31T11:12:19.395Z,72.40
2023-03-31T11:15:23.405Z,74.40
2023-03-31T11:17:59.224Z,75.90
2023-03-31T11:20:31.484Z,74.70
2023-03-31T11:23:22.262Z,74.90
2023-03-31T11:26:05.384Z,74.40
2023-03-31T11:29:04.592Z,73.10
2023-03-31T11:31:56.984Z,74.40
2023-03-31T11:35:06.007Z,72.70
2023-03-31T11:38:21.704Z,71.00
2023-03-31T11:40:58.647Z,77.90
2023-03-31T11:43:36.730Z,78.90
2023-03-31T11:46:20.986Z,76.70
2023-03-31T11:48:59.694Z,72.30
2023-03-31T11:51:31.876Z,69.90
2023-03-31T11:54:01.346Z,69.60
2023-03-31T11:56:36.470Z,70.60
2023-03-31T11:59:04.261Z,71.20
2023-03-31T12:01:48.102Z,68.80
2023-03-31T12:04:38.133Z,70.10
2023-03-31T12:07:16.616Z,68.40
2023-03-31T12:10:05.735Z,63.90
2023-03-31T12:12:43.814Z,65.70
2023-03-31T12:15:29.975Z,65.80
2023-03-31T12:18:10.314Z,64.30
2023-03-31T12:20:47.740Z,65.10
2023-03-31T12:23:21.837Z,63.60
2023-03-31T12:25:59.173Z,62.40
2023-03-31T12:28:27.651Z,65.30
2023-03-31T12:30:57.122Z,61.70
2023-03-31T12:33:27.236Z,59.20
2023-03-31T12:36:10.963Z,61.30
2023-03-31T12:38:47.118Z,62.70
2023-03-31T12:41:44.828Z,61.20
2023-03-31T12:44:11.455Z,59.10
2023-03-31T12:46:43.895Z,62.00
2023-03-31T12:49:13.430Z,60.30
2023-03-31T12:52:18.382Z,62.70
2023-03-31T12:58:27.324Z,75.80
2023-03-31T13:01:01.327Z,81.80
2023-03-31T13:03:34.563Z,87.40
2023-03-31T13:06:03.209Z,86.20
2023-03-31T13:08:55.332Z,84.40
2023-03-31T13:11:47.910Z,84.50
2023-03-31T13:14:36.285Z,88.80
2023-03-31T13:17:31.833Z,88.70
2023-03-31T13:20:30.731Z,86.50
2023-03-31T13:23:19.670Z,85.70
2023-03-31T13:25:57.422Z,81.80
2023-03-31T13:28:24.604Z,82.80
2023-03-31T13:30:57.438Z,82.20
2023-03-31T13:33:47.823Z,75.30
2023-03-31T13:36:32.915Z,76.10
2023-03-31T13:39:19.218Z,79.40
2023-03-31T13:41:52.236Z,78.90
2023-03-31T13:44:44.095Z,81.50
2023-03-31T13:47:24.174Z,82.10
2023-03-31T13:49:59.374Z,82.70
2023-03-31T13:52:54.907Z,83.40
2023-03-31T13:55:51.991Z,86.20
2023-03-31T13:58:34.617Z,87.50
2023-03-31T14:01:50.874Z,84.50
2023-03-31T14:04:55.134Z,82.00
2023-03-31T14:07:46.486Z,83.10
2023-03-31T14:10:42.583Z,83.80
2023-03-31T14:13:18.811Z,80.40
2023-03-31T14:15:53.038Z,81.40
2023-03-31T14:18:26.490Z,78.50
2023-03-31T14:21:11.533Z,80.20
2023-03-31T14:24:08.157Z,80.00
2023-03-31T14:26:56.374Z,81.40
2023-03-31T14:29:47.185Z,82.60
2023-03-31T14:32:32.563Z,84.90
2023-03-31T14:35:14.072Z,87.60
2023-03-31T14:37:40.995Z,89.40
2023-03-31T14:40:15.689Z,89.00
2023-03-31T14:42:49.613Z,90.90
2023-03-31T14:45:25.203Z,90.30
2023-03-31T14:48:02.628Z,89.40
2023-03-31T14:50:38.564Z,88.20
2023-03-31T14:53:15.423Z,88.40
2023-03-31T14:55:58.269Z,86.80
2023-03-31T14:58:43.310Z,87.30
2023-03-31T15:01:17.342Z,80.60
2023-03-31T15:03:44.996Z,82.80
2023-03-31T15:06:11.812Z,79.90
2023-03-31T15:08:38.906Z,83.20
2023-03-31T15:11:15.026Z,86.00
2023-03-31T15:13:50.011Z,87.10
2023-03-31T15:16:35.122Z,87.30
2023-03-31T15:19:12.174Z,86.90
2023-03-31T15:21:39.262Z,88.70
2023-03-31T15:24:06.720Z,88.60
2023-03-31T15:26:42.167Z,88.60
2023-03-31T15:29:28.874Z,89.20
2023-03-31T15:31:59.545Z,89.20
2023-03-31T15:34:30.791Z,90.20
2023-03-31T15:36:57.898Z,90.20
2023-03-31T15:39:27.261Z,91.20
2023-03-31T15:41:55.115Z,91.20
2023-03-31T15:44:47.495Z,90.70
2023-03-31T15:47:43.982Z,91.60
2023-03-31T15:50:14.760Z,91.60
2023-03-31T15:52:53.748Z,92.90
2023-03-31T15:55:23.576Z,91.10
2023-03-31T15:57:51.857Z,91.80
2023-03-31T16:00:34.100Z,92.10
2023-03-31T16:03:03.836Z,91.50
2023-03-31T16:05:53.499Z,91.70
2023-03-31T16:08:26.761Z,92.70
2023-03-31T16:11:04.723Z,94.00
2023-03-31T16:13:32.479Z,94.00
2023-03-31T16:16:00.183Z,93.30
2023-03-31T16:18:33.876Z,93.50
2023-03-31T16:21:03.845Z,92.90
2023-03-31T16:23:38.730Z,94.00
2023-03-31T16:26:06.976Z,93.10
2023-03-31T16:28:36.760Z,93.90
2023-03-31T16:31:05.245Z,92.30
2023-03-31T16:33:53.451Z,91.90
2023-03-31T16:36:20.521Z,92.00
2023-03-31T16:38:47.212Z,93.10
2023-03-31T16:41:15.782Z,92.80
2023-03-31T16:43:45.149Z,93.00
2023-03-31T16:46:11.979Z,93.30
2023-03-31T16:48:39.169Z,93.50
2023-03-31T16:51:05.902Z,93.60
2023-03-31T16:53:36.041Z,94.20
2023-03-31T16:56:09.222Z,94.40
2023-03-31T16:58:37.728Z,94.10
2023-03-31T17:01:07.039Z,94.20
2023-03-31T17:03:35.021Z,94.50
2023-03-31T17:06:06.914Z,95.10
2023-03-31T17:08:33.756Z,93.90
2023-03-31T17:11:03.540Z,93.70
2023-03-31T17:13:32.399Z,94.10
2023-03-31T17:18:53.175Z,94.50
2023-03-31T17:21:19.928Z,95.00
2023-03-31T17:23:47.430Z,94.30
2023-03-31T17:26:14.640Z,93.70
2023-03-31T17:28:42.087Z,94.00
2023-03-31T17:31:19.874Z,93.70
2023-03-31T17:33:48.273Z,93.30
2023-03-31T17:36:16.572Z,93.50
2023-03-31T17:38:43.378Z,94.00
2023-03-31T17:41:12.925Z,94.30
2023-03-31T17:43:40.270Z,94.30
2023-03-31T17:46:13.141Z,94.70
2023-03-31T17:48:40.803Z,94.70
2023-03-31T17:51:10.048Z,94.60
2023-03-31T17:53:37.191Z,94.50
2023-03-31T17:56:05.105Z,94.60
2023-03-31T17:58:32.942Z,94.50
2023-03-31T18:00:59.888Z,94.30
2023-03-31T18:03:30.074Z,94.10
2023-03-31T18:05:57.621Z,94.50
2023-03-31T18:08:24.359Z,94.40
2023-03-31T18:10:51.495Z,94.30
2023-03-31T18:13:18.209Z,94.80
2023-03-31T18:15:53.905Z,94.90
2023-03-31T18:18:21.209Z,95.30
2023-03-31T18:20:50.579Z,95.60
2023-03-31T18:23:17.540Z,95.80
2023-03-31T18:25:46.348Z,96.10
2023-03-31T18:28:14.528Z,96.30
2023-03-31T18:30:41.577Z,96.60
2023-03-31T18:33:08.266Z,96.80
2023-03-31T18:35:35.096Z,97.00
2023-03-31T18:38:01.945Z,97.40
2023-03-31T18:40:28.686Z,97.50
2023-03-31T18:42:55.492Z,97.80
2023-03-31T18:45:22.567Z,97.70
2023-03-31T18:47:49.746Z,97.80
2023-03-31T18:50:17.324Z,97.90
2023-03-31T18:52:44.030Z,97.80
2023-03-31T18:55:11.078Z,97.80
2023-03-31T18:57:37.764Z,97.30
2023-03-31T19:00:05.620Z,97.30
2023-03-31T19:02:32.519Z,97.40
2023-03-31T19:04:59.274Z,97.10
2023-03-31T19:07:26.007Z,97.30
2023-03-31T19:09:52.769Z,97.30
2023-03-31T19:12:19.892Z,97.30
2023-03-31T19:14:46.590Z,97.40
2023-03-31T19:17:13.217Z,97.40
2023-03-31T19:19:40.048Z,97.00
2023-03-31T19:22:07.157Z,96.70
2023-03-31T19:24:33.809Z,97.00
2023-03-31T19:27:00.709Z,97.20
2023-03-31T19:29:28.091Z,97.50
2023-03-31T19:31:54.827Z,98.10
2023-03-31T19:34:22.034Z,98.40
2023-03-31T19:36:48.942Z,98.70
2023-03-31T19:39:15.600Z,98.60
2023-03-31T19:41:42.339Z,98.50
2023-03-31T19:44:09.157Z,98.50
2023-03-31T19:46:36.194Z,98.80
2023-03-31T19:49:03.090Z,98.20
2023-03-31T19:51:30.006Z,98.40
2023-03-31T19:53:57.469Z,97.90
2023-03-31T19:56:25.737Z,97.70
2023-03-31T19:58:53.466Z,97.40
2023-03-31T20:01:23.882Z,96.80
2023-03-31T20:03:53.037Z,97.30
2023-03-31T20:06:23.484Z,97.30
2023-03-31T20:08:58.854Z,97.30
2023-03-31T20:11:26.883Z,97.50
2023-03-31T20:13:54.716Z,97.80
2023-03-31T20:16:24.485Z,98.10
2023-03-31T20:18:53.969Z,98.20
2023-03-31T20:21:25.493Z,98.30
2023-03-31T20:23:52.929Z,98.20
2023-03-31T20:26:23.976Z,98.30
2023-03-31T20:28:51.916Z,98.20
2023-03-31T20:31:28.127Z,98.20
2023-03-31T20:33:56.116Z,98.50
2023-03-31T20:36:25.447Z,98.40
2023-03-31T20:38:53.927Z,98.50
2023-03-31T20:41:23.822Z,98.70
2023-03-31T20:43:51.132Z,98.80
2023-03-31T20:46:18.421Z,98.90
2023-03-31T20:48:47.943Z,99.00
2023-03-31T20:51:17.309Z,99.00
2023-03-31T20:53:49.353Z,99.00
2023-03-31T20:56:19.687Z,99.00
2023-03-31T20:58:47.703Z,99.00
2023-03-31T21:01:14.911Z,98.90
2023-03-31T21:03:42.418Z,98.90
2023-03-31T21:06:12.061Z,99.00
2023-03-31T21:08:39.695Z,99.00
2023-03-31T21:11:06.632Z,99.00
2023-03-31T21:13:34.016Z,98.90
2023-03-31T21:16:01.850Z,99.00
2023-03-31T21:18:30.348Z,98.90
2023-03-31T21:20:59.570Z,98.50
2023-03-31T21:23:27.503Z,98.50
2023-03-31T21:25:57.968Z,98.40
2023-03-31T21:28:28.158Z,98.30
2023-03-31T21:30:57.824Z,98.00
2023-03-31T21:33:25.773Z,98.30
2023-03-31T21:35:53.317Z,97.50
2023-03-31T21:38:20.938Z,97.50
2023-03-31T21:40:48.305Z,97.30
2023-03-31T21:43:15.863Z,97.10
2023-03-31T21:45:42.986Z,96.90
2023-03-31T21:48:11.063Z,96.60
2023-03-31T21:50:39.983Z,96.50
2023-03-31T21:53:08.214Z,96.20
2023-03-31T21:55:37.411Z,96.30
2023-03-31T21:58:05.531Z,96.30
2023-03-31T22:00:32.888Z,96.30
2023-03-31T22:03:16.181Z,96.60
2023-03-31T22:05:46.624Z,96.70
2023-03-31T22:08:13.308Z,96.80
2023-03-31T22:10:40.005Z,96.90
2023-03-31T22:13:06.747Z,97.10
2023-03-31T22:15:33.684Z,97.20
2023-03-31T22:18:01.685Z,97.50
2023-03-31T22:20:28.462Z,97.70
2023-03-31T22:22:55.082Z,97.90
2023-03-31T22:25:21.770Z,97.90
2023-03-31T22:27:48.464Z,97.90
2023-03-31T22:30:15.438Z,97.60
2023-03-31T22:32:42.226Z,97.70
2023-03-31T22:35:09.364Z,97.90
2023-03-31T22:37:36.194Z,98.20
2023-03-31T22:40:02.861Z,98.50
2023-03-31T22:42:29.557Z,98.50
2023-03-31T22:44:56.195Z,98.50
2023-03-31T22:47:23.005Z,98.70
2023-03-31T22:49:49.702Z,98.70
2023-03-31T22:52:16.753Z,98.60
2023-03-31T22:54:43.452Z,98.50
2023-03-31T22:57:10.577Z,98.70
2023-03-31T22:59:37.391Z,98.90
2023-03-31T23:02:04.456Z,99.00
2023-03-31T23:04:31.333Z,99.20
2023-03-31T23:06:58.229Z,99.60
2023-03-31T23:09:25.016Z,99.70
2023-03-31T23:11:51.882Z,99.90
2023-03-31T23:14:18.609Z,99.90
2023-03-31T23:16:45.380Z,99.90
2023-03-31T23:19:12.363Z,99.90
2023-03-31T23:21:39.012Z,99.90
2023-03-31T23:24:06.174Z,99.90
2023-03-31T23:26:34.180Z,99.90
2023-03-31T23:29:01.306Z,99.90
2023-03-31T23:31:30.375Z,99.90
2023-03-31T23:33:58.752Z,99.90
2023-03-31T23:36:25.890Z,99.90
2023-03-31T23:38:54.008Z,99.90
2023-03-31T23:41:22.827Z,99.90
2023-03-31T23:43:50.922Z,99.90
2023-03-31T23:46:17.804Z,99.90
2023-03-31T23:48:44.490Z,99.90
2023-03-31T23:51:12.706Z,99.90
2023-03-31T23:53:39.406Z,99.90
2023-03-31T23:56:09.708Z,99.90
2023-03-31T23:58:37.560Z,99.90
